Time;durP1;ratioP1;P1;durP2;ratioP2;P2;SDS_P1;SDS_P2;PMS_P1;PMS_P2;Temp;Humidity;BMP_temperature;BMP_pressure;BME280_temperature;BME280_humidity;BME280_pressure;Samples;Min_cycle;Max_cycle;Signal;HPM_P1;HPM_P2
2021/11/15 00:00:26;;;;;;;24.73;2.37;;;9.00;99.90;;;;;;5053379;28;20475;-70
2021/11/15 00:02:53;;;;;;;0.90;0.90;;;9.00;99.90;;;;;;5053864;28;20433;-70
2021/11/15 00:05:18;;;;;;;0.80;0.60;;;9.00;99.90;;;;;;5053364;28;20175;-70
2021/11/15 00:07:44;;;;;;;0.70;0.53;;;9.00;99.90;;;;;;5054715;28;20463;-70
2021/11/15 00:10:15;;;;;;;0.70;0.60;;;9.10;99.90;;;;;;5054327;28;20528;-69
2021/11/15 00:12:43;;;;;;;0.80;0.70;;;9.10;99.90;;;;;;5054018;28;20182;-70
2021/11/15 00:15:09;;;;;;;2.00;1.37;;;9.00;99.90;;;;;;5052604;28;20436;-71
2021/11/15 00:17:35;;;;;;;0.77;0.73;;;9.00;99.90;;;;;;5053010;28;20809;-69
2021/11/15 00:20:00;;;;;;;1.00;1.00;;;9.00;99.90;;;;;;5054264;28;20504;-70
2021/11/15 00:22:26;;;;;;;1.20;1.10;;;9.10;99.90;;;;;;5050668;28;20163;-70
2021/11/15 00:24:51;;;;;;;0.80;0.70;;;9.00;99.90;;;;;;5052508;28;20175;-69
2021/11/15 00:27:17;;;;;;;0.80;0.70;;;9.00;99.90;;;;;;5053185;28;20178;-70
2021/11/15 00:29:43;;;;;;;3.20;1.33;;;9.10;99.90;;;;;;5050695;28;20210;-70
2021/11/15 00:32:08;;;;;;;0.70;0.50;;;9.10;99.90;;;;;;5052275;28;20198;-69
2021/11/15 00:34:34;;;;;;;1.30;1.07;;;9.10;99.90;;;;;;5053939;28;20173;-70
2021/11/15 00:36:59;;;;;;;1.20;1.10;;;9.10;99.90;;;;;;5053740;28;20191;-70
2021/11/15 00:39:25;;;;;;;1.57;1.47;;;9.10;99.90;;;;;;5053807;28;20186;-70
2021/11/15 00:41:51;;;;;;;1.60;1.50;;;9.10;99.90;;;;;;5052557;28;20261;-70
2021/11/15 00:44:17;;;;;;;1.00;1.00;;;9.10;99.90;;;;;;5051940;28;20171;-70
2021/11/15 00:46:42;;;;;;;8.07;1.23;;;9.10;99.90;;;;;;5052269;28;20185;-70
2021/11/15 00:49:08;;;;;;;1.07;1.07;;;9.00;99.90;;;;;;5053764;28;20187;-70
2021/11/15 00:51:33;;;;;;;2.20;1.00;;;9.00;99.90;;;;;;5053134;28;20187;-69
2021/11/15 00:53:59;;;;;;;10.13;1.30;;;9.10;99.90;;;;;;5053076;28;20182;-70
2021/11/15 00:56:25;;;;;;;0.70;0.60;;;9.10;99.90;;;;;;5050771;28;20206;-70
2021/11/15 00:58:52;;;;;;;0.80;0.80;;;9.10;99.90;;;;;;5052044;28;20541;-70
2021/11/15 01:01:18;;;;;;;0.70;0.53;;;9.10;99.90;;;;;;5053035;28;20441;-69
2021/11/15 01:03:43;;;;;;;0.70;0.67;;;9.10;99.90;;;;;;5052782;28;20429;-70
2021/11/15 01:06:09;;;;;;;1.07;1.00;;;9.20;99.90;;;;;;5053214;28;20421;-70
2021/11/15 01:08:34;;;;;;;1.20;1.00;;;9.20;99.90;;;;;;5053058;28;20271;-69
2021/11/15 01:11:00;;;;;;;0.90;0.80;;;9.10;99.90;;;;;;5051557;28;20201;-70
2021/11/15 01:13:26;;;;;;;1.80;1.70;;;9.20;99.90;;;;;;5053450;28;20197;-69
2021/11/15 01:15:53;;;;;;;0.70;0.50;;;9.20;99.90;;;;;;5052391;28;20245;-70
2021/11/15 01:18:19;;;;;;;1.00;0.90;;;9.20;99.90;;;;;;5053053;28;20453;-70
2021/11/15 01:20:45;;;;;;;1.33;1.20;;;9.20;99.90;;;;;;5052586;28;20493;-70
2021/11/15 01:23:11;;;;;;;1.53;1.43;;;9.10;99.90;;;;;;5053203;28;20448;-70
2021/11/15 01:25:38;;;;;;;0.70;0.50;;;9.10;99.90;;;;;;5048804;28;20794;-70
2021/11/15 01:28:05;;;;;;;0.80;0.70;;;9.20;99.90;;;;;;5053046;28;20238;-69
2021/11/15 01:30:30;;;;;;;1.10;1.00;;;9.20;99.90;;;;;;5052383;28;20437;-70
2021/11/15 01:32:56;;;;;;;1.10;0.87;;;9.10;99.90;;;;;;5051573;28;20444;-70
2021/11/15 01:35:23;;;;;;;1.50;1.23;;;9.10;99.90;;;;;;5051926;28;20665;-70
2021/11/15 01:37:49;;;;;;;0.80;0.53;;;9.10;99.90;;;;;;5049875;28;20477;-70
2021/11/15 01:40:18;;;;;;;10.13;1.87;;;9.10;99.90;;;;;;5052508;28;20449;-70
2021/11/15 01:42:45;;;;;;;1.67;1.57;;;9.10;99.90;;;;;;5051403;28;20482;-70
2021/11/15 01:45:12;;;;;;;6.40;1.13;;;9.10;99.90;;;;;;5051481;28;20424;-70
2021/11/15 01:47:38;;;;;;;0.80;0.70;;;9.10;99.90;;;;;;5052821;28;20402;-70
2021/11/15 01:50:06;;;;;;;1.27;1.07;;;9.10;99.90;;;;;;5052616;28;20432;-70
2021/11/15 01:52:31;;;;;;;1.47;1.33;;;9.10;99.90;;;;;;5049872;28;20441;-70
2021/11/15 01:54:57;;;;;;;1.27;1.03;;;9.10;99.90;;;;;;5048995;28;20508;-70
2021/11/15 01:57:22;;;;;;;1.50;0.90;;;9.10;99.90;;;;;;5051658;28;20214;-70
2021/11/15 01:59:48;;;;;;;0.70;0.50;;;9.20;99.90;;;;;;5052446;28;20683;-70
2021/11/15 02:02:14;;;;;;;0.70;0.50;;;9.10;99.90;;;;;;5050574;28;20214;-69
2021/11/15 02:04:39;;;;;;;0.70;0.50;;;9.20;99.90;;;;;;5051652;28;20185;-70
2021/11/15 02:07:05;;;;;;;1.83;1.00;;;9.10;99.90;;;;;;5050537;28;20214;-70
2021/11/15 02:09:31;;;;;;;1.43;0.80;;;9.20;99.90;;;;;;5048091;28;20199;-70
2021/11/15 02:11:57;;;;;;;1.43;0.93;;;9.10;99.90;;;;;;5052299;28;20216;-70
2021/11/15 02:14:23;;;;;;;1.80;1.13;;;9.10;99.90;;;;;;5052081;28;20177;-70
2021/11/15 02:16:49;;;;;;;2.37;1.63;;;9.10;99.90;;;;;;5051063;28;20548;-70
2021/11/15 02:19:15;;;;;;;0.80;0.60;;;9.10;99.90;;;;;;5050955;28;20464;-70
2021/11/15 02:21:40;;;;;;;1.47;1.37;;;9.10;99.90;;;;;;5051211;28;20433;-70
2021/11/15 02:24:08;;;;;;;1.07;0.70;;;9.10;99.90;;;;;;5049727;28;20269;-70
2021/11/15 02:26:33;;;;;;;1.73;1.57;;;9.10;99.90;;;;;;5047485;28;20290;-69
2021/11/15 02:28:59;;;;;;;0.70;0.60;;;9.10;99.90;;;;;;5052014;28;20957;-70
2021/11/15 02:31:28;;;;;;;2.90;0.80;;;9.10;99.90;;;;;;5049895;28;20652;-70
2021/11/15 02:33:57;;;;;;;0.70;0.70;;;9.10;99.90;;;;;;5051442;28;20632;-70
2021/11/15 02:36:25;;;;;;;3.57;2.70;;;9.10;99.90;;;;;;5047376;28;20572;-70
2021/11/15 02:38:53;;;;;;;1.10;0.90;;;9.10;99.90;;;;;;5051690;28;20875;-70
2021/11/15 02:41:21;;;;;;;1.00;0.87;;;9.10;99.90;;;;;;5050257;28;20441;-70
2021/11/15 02:43:47;;;;;;;0.70;0.50;;;9.10;99.90;;;;;;5048393;28;20437;-70
2021/11/15 02:46:14;;;;;;;3.67;1.97;;;9.10;99.90;;;;;;5049037;28;20490;-70
2021/11/15 02:48:39;;;;;;;1.23;1.00;;;9.10;99.90;;;;;;5051046;28;20407;-70
2021/11/15 02:51:05;;;;;;;0.70;0.60;;;9.10;99.90;;;;;;5051140;28;20961;-70
2021/11/15 02:53:30;;;;;;;1.57;1.17;;;9.10;99.90;;;;;;5051838;28;20202;-70
2021/11/15 02:55:56;;;;;;;1.20;0.67;;;9.10;99.90;;;;;;5047907;28;20191;-69
2021/11/15 02:58:22;;;;;;;1.20;1.10;;;9.10;99.90;;;;;;5050578;28;20194;-70
2021/11/15 03:00:52;;;;;;;0.73;0.70;;;9.10;99.90;;;;;;5050468;28;20425;-70
2021/11/15 03:03:18;;;;;;;0.70;0.53;;;9.10;99.90;;;;;;5049656;28;20177;-70
2021/11/15 03:05:48;;;;;;;1.73;1.27;;;9.10;99.90;;;;;;5050586;28;20902;-70
2021/11/15 03:08:15;;;;;;;2.17;2.00;;;9.10;99.90;;;;;;5054916;28;20472;-70
2021/11/15 03:10:42;;;;;;;1.13;1.03;;;9.10;99.90;;;;;;5054952;28;20397;-69
2021/11/15 03:13:11;;;;;;;1.03;0.93;;;9.00;99.90;;;;;;5053998;28;20788;-69
2021/11/15 03:15:40;;;;;;;1.10;1.00;;;9.00;99.90;;;;;;5052545;28;20470;-70
2021/11/15 03:18:13;;;;;;;1.30;1.20;;;9.00;99.90;;;;;;5055363;28;20477;-70
2021/11/15 03:20:43;;;;;;;0.93;0.83;;;9.10;99.90;;;;;;5054741;28;20437;-70
2021/11/15 03:23:13;;;;;;;1.47;1.37;;;9.00;99.90;;;;;;5055493;28;20802;-70
2021/11/15 03:25:39;;;;;;;0.80;0.80;;;9.00;99.90;;;;;;5053737;28;20432;-70
2021/11/15 03:28:08;;;;;;;0.70;0.63;;;9.00;99.90;;;;;;5052660;28;20933;-70
2021/11/15 03:30:34;;;;;;;1.03;0.93;;;9.00;99.90;;;;;;5053699;28;20432;-70
2021/11/15 03:33:00;;;;;;;0.73;0.73;;;9.00;99.90;;;;;;5054349;28;20520;-70
2021/11/15 03:35:26;;;;;;;1.10;1.00;;;9.00;99.90;;;;;;5053124;28;20175;-69
2021/11/15 03:37:52;;;;;;;0.70;0.60;;;9.00;99.90;;;;;;5055100;28;21056;-70
2021/11/15 03:40:23;;;;;;;0.73;0.67;;;9.00;99.90;;;;;;5054228;28;20183;-70
2021/11/15 03:42:54;;;;;;;0.93;0.80;;;9.10;99.90;;;;;;5053206;28;20922;-70
2021/11/15 03:45:20;;;;;;;2.20;2.10;;;9.10;99.90;;;;;;5054862;28;20421;-71
2021/11/15 03:47:46;;;;;;;0.70;0.50;;;9.00;99.90;;;;;;5054289;28;20473;-70
2021/11/15 03:50:13;;;;;;;0.80;0.70;;;9.10;99.90;;;;;;5052353;28;20889;-70
2021/11/15 03:52:40;;;;;;;3.67;0.87;;;9.00;99.90;;;;;;5052667;28;20937;-70
2021/11/15 03:55:08;;;;;;;5.97;2.80;;;9.00;99.90;;;;;;5069843;28;20443;-70
2021/11/15 03:57:35;;;;;;;1.20;0.90;;;9.00;99.90;;;;;;5054234;28;20840;-70
2021/11/15 04:00:02;;;;;;;3.73;0.90;;;9.10;99.90;;;;;;5054609;28;20444;-71
2021/11/15 04:02:31;;;;;;;0.80;0.70;;;9.00;99.90;;;;;;5054711;28;20792;-70
2021/11/15 04:05:01;;;;;;;6.60;1.60;;;9.00;99.90;;;;;;5054790;28;20417;-70
2021/11/15 04:07:28;;;;;;;2.90;0.90;;;9.10;99.90;;;;;;5053836;28;20440;-70
2021/11/15 04:09:56;;;;;;;0.70;0.53;;;9.00;99.90;;;;;;5053223;28;20487;-70
2021/11/15 04:12:23;;;;;;;0.70;0.60;;;9.00;99.90;;;;;;5054011;28;20483;-70
2021/11/15 04:14:50;;;;;;;1.17;1.00;;;9.00;99.90;;;;;;5053596;28;20405;-69
2021/11/15 04:17:15;;;;;;;3.47;2.80;;;9.00;99.90;;;;;;5049730;28;20838;-70
2021/11/15 04:19:42;;;;;;;1.43;0.70;;;9.00;99.90;;;;;;5053485;28;20433;-70
2021/11/15 04:22:07;;;;;;;1.30;1.20;;;9.00;99.90;;;;;;5053338;28;20344;-71
2021/11/15 04:24:33;;;;;;;12.63;1.53;;;9.00;99.90;;;;;;5054692;28;20500;-70
2021/11/15 04:26:58;;;;;;;0.70;0.50;;;9.00;99.90;;;;;;5051934;28;20258;-71
2021/11/15 04:29:24;;;;;;;1.50;1.40;;;9.00;99.90;;;;;;5054658;28;20191;-71
2021/11/15 04:31:49;;;;;;;1.47;1.37;;;9.00;99.90;;;;;;5053446;28;20186;-71
2021/11/15 04:34:15;;;;;;;0.70;0.60;;;9.00;99.90;;;;;;5051734;28;20179;-71
2021/11/15 04:36:40;;;;;;;0.70;0.63;;;9.00;99.90;;;;;;5052878;28;20282;-70
2021/11/15 04:39:06;;;;;;;0.70;0.60;;;9.10;99.90;;;;;;5052651;28;20194;-71
2021/11/15 04:41:32;;;;;;;3.67;1.17;;;9.00;99.90;;;;;;5054583;28;20171;-70
2021/11/15 04:43:57;;;;;;;2.20;2.10;;;9.00;99.90;;;;;;5054406;28;20175;-70
2021/11/15 04:46:23;;;;;;;0.70;0.50;;;9.00;99.90;;;;;;5052470;28;20240;-70
2021/11/15 04:48:48;;;;;;;3.07;1.10;;;9.00;99.90;;;;;;5052831;28;20252;-70
2021/11/15 04:51:14;;;;;;;0.80;0.70;;;9.00;99.90;;;;;;5052234;28;20605;-72
2021/11/15 04:53:40;;;;;;;0.70;0.50;;;9.00;99.90;;;;;;5054865;28;20171;-71
2021/11/15 04:56:07;;;;;;;1.10;0.97;;;9.00;99.90;;;;;;5052664;28;20269;-70
2021/11/15 04:58:33;;;;;;;0.70;0.60;;;9.00;99.90;;;;;;5052039;28;20229;-70
2021/11/15 05:00:59;;;;;;;3.53;3.23;;;9.00;99.90;;;;;;5052048;28;20764;-70
2021/11/15 05:03:24;;;;;;;2.23;1.27;;;9.00;99.90;;;;;;5053976;28;20429;-71
2021/11/15 05:05:50;;;;;;;1.20;1.00;;;9.00;99.90;;;;;;5051620;28;20174;-70
2021/11/15 05:08:15;;;;;;;1.80;1.70;;;9.00;99.90;;;;;;5051535;28;20202;-71
2021/11/15 05:10:42;;;;;;;1.07;0.97;;;9.00;99.90;;;;;;5053261;28;20505;-71
2021/11/15 05:13:07;;;;;;;0.70;0.60;;;9.00;99.90;;;;;;5053926;28;20178;-71
2021/11/15 05:15:33;;;;;;;0.70;0.50;;;9.00;99.90;;;;;;5053009;28;20454;-71
2021/11/15 05:17:59;;;;;;;0.70;0.60;;;9.00;99.90;;;;;;5051543;28;20693;-71
2021/11/15 05:20:25;;;;;;;6.07;4.60;;;9.00;99.90;;;;;;5052590;28;20250;-70
2021/11/15 05:22:51;;;;;;;2.80;2.60;;;9.00;99.90;;;;;;5054263;28;20409;-71
2021/11/15 05:25:18;;;;;;;0.70;0.57;;;9.00;99.90;;;;;;5052474;28;20416;-70
2021/11/15 05:27:44;;;;;;;2.33;2.23;;;9.00;99.90;;;;;;5051141;28;20850;-70
2021/11/15 05:30:12;;;;;;;0.90;0.90;;;9.00;99.90;;;;;;5051056;28;20452;-71
2021/11/15 05:32:38;;;;;;;4.97;1.47;;;9.00;99.90;;;;;;5050815;28;20464;-70
2021/11/15 05:35:05;;;;;;;0.70;0.60;;;9.00;99.90;;;;;;5051602;28;20522;-70
2021/11/15 05:37:31;;;;;;;1.10;1.00;;;9.00;99.90;;;;;;5068030;28;20453;-70
2021/11/15 05:39:56;;;;;;;0.80;0.70;;;9.00;99.90;;;;;;5053571;28;20476;-71
2021/11/15 05:42:22;;;;;;;0.87;0.87;;;9.00;99.90;;;;;;5050607;28;20194;-70
2021/11/15 05:44:48;;;;;;;0.70;0.53;;;9.00;99.90;;;;;;5068237;28;20171;-70
2021/11/15 05:47:14;;;;;;;4.87;1.00;;;9.00;99.90;;;;;;5050553;28;20682;-70
2021/11/15 05:49:39;;;;;;;0.70;0.50;;;8.90;99.90;;;;;;5053031;28;20183;-71
2021/11/15 05:52:05;;;;;;;0.83;0.83;;;8.90;99.90;;;;;;5052754;28;20175;-71
2021/11/15 05:54:31;;;;;;;4.00;2.83;;;8.90;99.90;;;;;;5052455;28;20174;-71
2021/11/15 05:56:56;;;;;;;2.50;2.30;;;8.90;99.90;;;;;;5050220;28;20465;-71
2021/11/15 05:59:22;;;;;;;1.77;1.37;;;8.90;99.90;;;;;;5051337;28;20197;-71
2021/11/15 06:01:47;;;;;;;3.33;2.40;;;8.90;99.90;;;;;;5052300;28;20178;-71
2021/11/15 06:04:13;;;;;;;2.63;0.80;;;8.90;99.90;;;;;;5051661;28;20163;-71
2021/11/15 06:06:40;;;;;;;1.37;0.67;;;8.90;99.90;;;;;;5052021;28;20175;-71
2021/11/15 06:09:05;;;;;;;1.47;0.80;;;8.90;99.90;;;;;;5052772;28;20457;-69
2021/11/15 06:11:31;;;;;;;1.50;1.33;;;8.90;99.90;;;;;;5048825;28;20480;-70
2021/11/15 06:13:56;;;;;;;1.73;1.27;;;8.90;99.90;;;;;;5043208;28;20224;-70
2021/11/15 06:16:22;;;;;;;0.80;0.70;;;8.90;99.90;;;;;;5052215;28;20211;-71
2021/11/15 06:18:48;;;;;;;1.27;1.17;;;8.80;99.90;;;;;;5052189;28;20244;-71
2021/11/15 06:21:14;;;;;;;0.80;0.70;;;8.80;99.90;;;;;;5044259;28;20421;-70
2021/11/15 06:23:40;;;;;;;1.97;1.13;;;8.80;99.90;;;;;;5048243;28;20630;-71
2021/11/15 06:26:05;;;;;;;0.70;0.50;;;8.80;99.90;;;;;;5048172;28;20216;-71
2021/11/15 06:28:31;;;;;;;6.20;1.10;;;8.90;99.90;;;;;;5045334;28;20195;-70
2021/11/15 06:30:57;;;;;;;0.73;0.60;;;8.80;99.90;;;;;;5045126;28;20179;-71
2021/11/15 06:33:22;;;;;;;1.40;1.00;;;8.80;99.90;;;;;;5043124;28;20182;-71
2021/11/15 06:35:48;;;;;;;1.10;1.00;;;8.80;99.90;;;;;;5042912;28;20840;-71
2021/11/15 06:38:14;;;;;;;4.47;1.20;;;8.80;99.90;;;;;;5042463;28;20202;-71
2021/11/15 06:40:40;;;;;;;0.70;0.60;;;8.80;99.90;;;;;;5043269;28;20309;-71
2021/11/15 06:43:06;;;;;;;2.70;1.37;;;8.80;99.90;;;;;;5048804;28;20479;-71
2021/11/15 06:45:33;;;;;;;1.93;0.90;;;8.90;99.90;;;;;;5050574;28;20421;-71
2021/11/15 06:48:00;;;;;;;2.67;2.57;;;8.90;99.90;;;;;;5048094;28;20419;-71
2021/11/15 06:50:26;;;;;;;10.30;2.27;;;8.90;99.90;;;;;;5046087;28;20436;-71
2021/11/15 06:52:52;;;;;;;3.70;2.70;;;8.90;99.90;;;;;;5047467;28;20421;-71
2021/11/15 06:55:21;;;;;;;1.90;1.80;;;8.90;99.90;;;;;;5047481;28;20425;-71
2021/11/15 06:57:47;;;;;;;0.70;0.50;;;8.90;99.90;;;;;;5046712;28;20460;-71
2021/11/15 07:00:18;;;;;;;1.47;1.37;;;8.90;99.90;;;;;;5047774;28;20512;-71
2021/11/15 07:02:44;;;;;;;3.00;2.80;;;8.90;99.90;;;;;;5051237;28;20859;-70
2021/11/15 07:05:14;;;;;;;1.63;1.53;;;8.90;99.90;;;;;;5050880;28;20491;-71
2021/11/15 07:07:40;;;;;;;1.57;1.33;;;8.90;99.90;;;;;;5046258;28;20202;-71
2021/11/15 07:10:07;;;;;;;1.73;1.20;;;8.90;99.90;;;;;;5046118;28;20542;-71
2021/11/15 07:12:33;;;;;;;0.80;0.63;;;8.90;99.90;;;;;;5055598;28;20426;-71
2021/11/15 07:14:59;;;;;;;1.03;0.93;;;8.90;99.90;;;;;;5045341;28;20409;-71
2021/11/15 07:17:25;;;;;;;0.70;0.60;;;8.90;99.90;;;;;;5046097;28;20460;-71
2021/11/15 07:19:51;;;;;;;1.97;1.20;;;8.90;99.90;;;;;;5047591;28;20961;-71
2021/11/15 07:22:16;;;;;;;0.70;0.57;;;9.00;99.90;;;;;;5046634;28;20246;-71
2021/11/15 07:24:42;;;;;;;1.00;0.90;;;9.00;99.90;;;;;;5046683;28;20218;-70
2021/11/15 07:27:07;;;;;;;0.90;0.80;;;9.00;99.90;;;;;;5052071;28;20694;-70
2021/11/15 07:29:33;;;;;;;1.67;1.57;;;9.00;99.90;;;;;;5051070;28;20278;-70
2021/11/15 07:32:00;;;;;;;1.17;1.10;;;9.00;99.90;;;;;;5051138;28;20171;-70
2021/11/15 07:34:27;;;;;;;0.97;0.97;;;9.00;99.90;;;;;;5050541;28;20167;-70
2021/11/15 07:36:54;;;;;;;0.80;0.77;;;9.00;99.90;;;;;;5051022;28;20488;-70
2021/11/15 07:39:20;;;;;;;1.63;0.90;;;9.10;99.90;;;;;;5051134;28;20444;-70
2021/11/15 07:41:46;;;;;;;0.70;0.50;;;9.10;99.90;;;;;;5050493;28;20426;-71
2021/11/15 07:44:12;;;;;;;1.77;1.33;;;9.10;99.90;;;;;;5051140;28;20940;-71
2021/11/15 07:46:37;;;;;;;1.83;1.33;;;9.10;99.90;;;;;;5040614;28;20179;-70
2021/11/15 07:49:03;;;;;;;1.90;1.40;;;9.10;99.90;;;;;;5048946;28;20444;-69
2021/11/15 07:51:29;;;;;;;0.70;0.70;;;9.10;99.90;;;;;;5034990;28;20183;-70
2021/11/15 07:53:55;;;;;;;0.80;0.60;;;9.10;99.90;;;;;;5035263;28;20184;-70
2021/11/15 07:56:21;;;;;;;0.90;0.90;;;9.10;99.90;;;;;;5055149;28;20534;-70
2021/11/15 07:58:46;;;;;;;1.67;1.40;;;9.10;99.90;;;;;;5055288;28;20251;-70
2021/11/15 08:01:12;;;;;;;1.00;0.90;;;9.10;99.90;;;;;;5055717;28;20167;-70
2021/11/15 08:03:41;;;;;;;13.83;2.30;;;9.10;99.90;;;;;;5055066;28;20175;-71
2021/11/15 08:06:10;;;;;;;1.23;0.87;;;9.10;99.90;;;;;;5055620;28;20163;-71
2021/11/15 08:08:36;;;;;;;0.80;0.70;;;9.10;99.90;;;;;;5038405;28;20520;-70
2021/11/15 08:11:03;;;;;;;1.57;1.47;;;9.10;99.90;;;;;;5052980;28;20819;-70
2021/11/15 08:13:29;;;;;;;0.80;0.63;;;9.10;99.90;;;;;;5049414;28;20458;-71
2021/11/15 08:15:54;;;;;;;0.70;0.50;;;9.10;99.90;;;;;;5054278;28;20503;-70
2021/11/15 08:18:20;;;;;;;1.83;0.97;;;9.10;99.90;;;;;;5054859;28;20549;-71
2021/11/15 08:20:46;;;;;;;1.53;0.70;;;9.10;99.90;;;;;;5054461;28;20225;-70
2021/11/15 08:23:14;;;;;;;1.57;1.47;;;9.10;99.90;;;;;;5052998;28;20547;-70
2021/11/15 08:26:13;;;;;;;0.80;0.80;;;9.20;99.90;;;;;;5045350;28;20421;-69
2021/11/15 08:28:39;;;;;;;0.70;0.50;;;9.20;99.90;;;;;;5067237;28;20432;-71
2021/11/15 08:31:08;;;;;;;1.67;1.57;;;9.20;99.90;;;;;;5054196;28;20413;-71
2021/11/15 08:33:34;;;;;;;0.80;0.70;;;9.20;99.90;;;;;;5041789;28;20177;-71
2021/11/15 08:36:00;;;;;;;2.20;1.27;;;9.20;99.90;;;;;;5054263;28;20480;-70
2021/11/15 08:39:06;;;;;;;1.00;0.70;;;9.20;99.90;;;;;;5053998;28;21487;-70
2021/11/15 08:41:46;;;;;;;1.00;0.70;;;9.20;99.90;;;;;;5044251;28;20561;-71
2021/11/15 08:44:16;;;;;;;1.13;1.03;;;9.20;99.90;;;;;;5050847;28;20484;-70
2021/11/15 08:46:44;;;;;;;0.97;0.60;;;9.20;99.90;;;;;;5054082;28;20405;-70
2021/11/15 08:49:10;;;;;;;1.20;0.70;;;9.20;99.90;;;;;;5052978;28;20472;-71
2021/11/15 08:51:38;;;;;;;2.00;0.60;;;9.20;99.90;;;;;;5054569;28;20405;-71
2021/11/15 08:54:06;;;;;;;1.50;1.33;;;9.20;99.90;;;;;;5053984;28;20417;-71
2021/11/15 08:56:32;;;;;;;0.70;0.50;;;9.20;99.90;;;;;;5051300;28;20472;-71
2021/11/15 08:58:57;;;;;;;4.83;1.50;;;9.30;99.90;;;;;;5051811;28;20457;-71
2021/11/15 09:01:25;;;;;;;1.17;1.07;;;9.40;99.90;;;;;;5053639;28;20418;-71
2021/11/15 09:03:53;;;;;;;0.70;0.50;;;9.30;99.90;;;;;;5052860;28;20178;-71
2021/11/15 09:06:19;;;;;;;3.90;1.17;;;9.30;99.90;;;;;;5051650;28;20416;-71
2021/11/15 09:08:45;;;;;;;2.70;2.50;;;9.40;99.90;;;;;;5052737;28;20491;-71
2021/11/15 09:11:11;;;;;;;0.70;0.57;;;9.40;99.90;;;;;;5055217;28;20425;-70
2021/11/15 09:13:39;;;;;;;0.70;0.50;;;9.40;99.90;;;;;;5055339;28;20570;-70
2021/11/15 09:16:06;;;;;;;2.97;1.37;;;9.40;99.90;;;;;;5053650;28;20413;-71
2021/11/15 09:18:33;;;;;;;1.80;0.87;;;9.40;99.90;;;;;;5054313;28;20441;-70
2021/11/15 09:20:59;;;;;;;0.70;0.50;;;9.40;99.90;;;;;;5047695;28;20427;-71
2021/11/15 09:23:25;;;;;;;2.00;1.90;;;9.40;99.90;;;;;;5054449;28;20401;-71
2021/11/15 09:25:51;;;;;;;0.70;0.53;;;9.40;99.90;;;;;;5054310;28;20460;-71
2021/11/15 09:28:17;;;;;;;1.73;1.27;;;9.40;99.90;;;;;;5052094;28;20204;-71
2021/11/15 09:30:44;;;;;;;0.70;0.60;;;9.50;99.90;;;;;;5053208;28;20482;-71
2021/11/15 09:33:11;;;;;;;0.80;0.77;;;9.50;99.90;;;;;;5053742;28;20463;-70
2021/11/15 09:35:37;;;;;;;1.63;1.23;;;9.50;99.90;;;;;;5054584;28;20508;-69
2021/11/15 09:38:03;;;;;;;1.67;1.57;;;9.50;99.90;;;;;;5054105;28;20445;-70
2021/11/15 09:40:31;;;;;;;1.37;1.13;;;9.50;99.90;;;;;;5054869;28;20414;-71
2021/11/15 09:42:57;;;;;;;2.03;1.47;;;9.50;99.90;;;;;;5052346;28;20413;-71
2021/11/15 09:45:24;;;;;;;1.20;1.10;;;9.50;99.90;;;;;;5051066;28;20410;-70
2021/11/15 09:47:52;;;;;;;0.90;0.80;;;9.50;99.90;;;;;;5041769;28;20441;-70
2021/11/15 09:50:19;;;;;;;1.97;1.87;;;9.50;99.90;;;;;;5048783;28;20424;-70
2021/11/15 09:52:45;;;;;;;0.70;0.50;;;9.50;99.90;;;;;;5052466;28;20425;-70
2021/11/15 09:55:11;;;;;;;0.80;0.57;;;9.50;99.90;;;;;;5051456;28;20512;-70
2021/11/15 09:57:40;;;;;;;0.70;0.60;;;9.50;99.90;;;;;;5051187;28;20940;-69
2021/11/15 10:00:12;;;;;;;1.20;1.10;;;9.60;99.90;;;;;;5051726;28;20214;-70
2021/11/15 10:02:38;;;;;;;1.97;1.67;;;9.60;99.90;;;;;;5052586;28;20486;-71
2021/11/15 10:05:08;;;;;;;3.90;2.17;;;9.50;99.90;;;;;;5044709;28;20418;-70
2021/11/15 10:07:57;;;;;;;7.43;4.10;;;9.50;99.90;;;;;;5042478;28;20316;-71
2021/11/15 10:10:41;;;;;;;0.80;0.80;;;9.50;99.90;;;;;;5044348;28;20559;-71
2021/11/15 10:13:18;;;;;;;0.70;0.50;;;9.60;99.90;;;;;;5053686;28;20431;-70
2021/11/15 10:15:53;;;;;;;1.90;0.87;;;9.50;99.90;;;;;;5052871;28;20421;-70
2021/11/15 10:18:30;;;;;;;0.90;0.83;;;9.50;99.90;;;;;;5053014;28;20449;-70
2021/11/15 10:20:56;;;;;;;1.27;1.17;;;9.50;99.90;;;;;;5053175;28;20414;-70
2021/11/15 10:23:48;;;;;;;3.73;3.40;;;9.60;99.90;;;;;;5059975;28;20460;-70
2021/11/15 10:26:28;;;;;;;1.00;0.90;;;9.60;99.90;;;;;;5052630;28;20425;-71
2021/11/15 10:29:02;;;;;;;4.63;1.00;;;9.50;99.90;;;;;;5052259;28;20491;-71
2021/11/15 10:31:52;;;;;;;3.23;0.80;;;9.50;99.90;;;;;;5050809;28;20420;-71
2021/11/15 10:34:32;;;;;;;0.70;0.60;;;9.50;99.90;;;;;;5050916;28;20414;-71
2021/11/15 10:36:57;;;;;;;1.60;1.50;;;9.50;99.90;;;;;;5051955;28;20444;-71
2021/11/15 10:39:29;;;;;;;1.40;1.30;;;9.50;99.90;;;;;;5051855;28;20507;-71
2021/11/15 10:42:07;;;;;;;0.70;0.70;;;9.50;99.90;;;;;;5051935;28;20216;-71
2021/11/15 10:44:34;;;;;;;0.80;0.73;;;9.50;99.90;;;;;;5051918;28;20791;-71
2021/11/15 10:47:00;;;;;;;1.33;1.23;;;9.50;99.90;;;;;;5054837;28;20427;-71
2021/11/15 10:49:26;;;;;;;2.20;1.10;;;9.60;99.90;;;;;;5051620;28;20452;-69
2021/11/15 10:51:56;;;;;;;4.97;1.10;;;9.60;99.90;;;;;;5049788;28;20174;-70
2021/11/15 10:54:59;;;;;;;1.53;1.43;;;9.70;99.90;;;;;;5051755;28;20410;-70
2021/11/15 10:57:37;;;;;;;0.80;0.73;;;9.60;99.90;;;;;;5043209;28;20551;-69
2021/11/15 11:00:10;;;;;;;2.40;1.17;;;9.60;99.90;;;;;;5051464;28;20937;-71
2021/11/15 11:02:41;;;;;;;1.20;1.10;;;9.70;99.90;;;;;;5046316;28;20425;-71
2021/11/15 11:05:21;;;;;;;3.00;2.60;;;9.70;99.90;;;;;;5051223;28;20416;-71
2021/11/15 11:07:49;;;;;;;1.00;0.80;;;9.70;99.90;;;;;;5053495;28;20563;-70
2021/11/15 11:10:18;;;;;;;1.33;1.23;;;9.70;99.90;;;;;;5051525;28;20421;-70
2021/11/15 11:13:03;;;;;;;0.70;0.60;;;9.60;99.90;;;;;;5050793;28;20758;-71
2021/11/15 11:15:34;;;;;;;1.73;1.10;;;9.60;99.90;;;;;;5050269;28;20417;-71
2021/11/15 11:18:14;;;;;;;1.70;1.33;;;9.60;99.90;;;;;;5051248;28;20467;-72
2021/11/15 11:26:20;;;;;;;0.90;0.70;;;9.70;99.90;;;;;;5050518;28;21129;-70
2021/11/15 11:28:55;;;;;;;0.90;0.90;;;9.80;99.90;;;;;;5052580;28;20502;-70
2021/11/15 11:31:22;;;;;;;1.40;1.23;;;9.70;99.90;;;;;;5055271;28;20411;-71
2021/11/15 11:33:48;;;;;;;0.70;0.50;;;9.60;99.90;;;;;;5055096;28;20405;-71
2021/11/15 11:36:15;;;;;;;10.13;3.50;;;9.60;99.90;;;;;;5054693;28;20423;-70
2021/11/15 11:38:43;;;;;;;1.00;1.00;;;9.60;99.90;;;;;;5055174;28;20194;-71
2021/11/15 11:41:09;;;;;;;1.97;1.30;;;9.60;99.90;;;;;;5054941;28;20393;-70
2021/11/15 11:43:35;;;;;;;1.53;1.43;;;9.70;99.90;;;;;;5057775;28;20440;-71
2021/11/15 11:46:01;;;;;;;5.13;2.23;;;9.60;99.90;;;;;;5055807;28;20846;-71
2021/11/15 11:48:27;;;;;;;2.70;1.47;;;9.60;99.90;;;;;;5055616;28;20607;-71
2021/11/15 11:50:55;;;;;;;1.27;0.90;;;9.60;99.90;;;;;;5056138;28;20578;-70
2021/11/15 11:53:24;;;;;;;0.80;0.60;;;9.70;99.90;;;;;;5052909;28;20424;-70
2021/11/15 11:55:51;;;;;;;1.67;0.80;;;9.70;99.90;;;;;;5054325;28;20439;-70
2021/11/15 11:58:22;;;;;;;2.90;1.33;;;9.60;99.90;;;;;;5055398;28;20472;-71
2021/11/15 12:00:50;;;;;;;0.80;0.70;;;9.60;99.90;;;;;;5054513;28;20413;-71
2021/11/15 12:03:15;;;;;;;1.83;1.73;;;9.60;99.90;;;;;;5055246;28;20448;-71
2021/11/15 12:05:42;;;;;;;0.93;0.93;;;9.60;99.90;;;;;;5054892;28;20421;-71
2021/11/15 12:08:09;;;;;;;2.20;2.10;;;9.60;99.90;;;;;;5054803;28;20171;-72
2021/11/15 12:10:46;;;;;;;1.10;1.00;;;9.70;99.90;;;;;;5053071;28;20429;-71
2021/11/15 12:13:13;;;;;;;0.80;0.70;;;9.60;99.90;;;;;;5053879;28;20428;-71
2021/11/15 12:15:51;;;;;;;1.37;1.27;;;9.60;99.90;;;;;;5054146;28;20440;-71
2021/11/15 12:18:27;;;;;;;0.87;0.87;;;9.60;99.90;;;;;;5053465;28;20841;-70
2021/11/15 12:21:05;;;;;;;2.37;2.27;;;9.60;99.90;;;;;;5054226;28;20784;-71
2021/11/15 12:23:44;;;;;;;0.70;0.70;;;9.70;99.90;;;;;;5053996;28;20762;-72
2021/11/15 12:26:25;;;;;;;14.87;1.87;;;9.60;99.90;;;;;;5054740;28;20413;-72
2021/11/15 12:28:59;;;;;;;6.10;1.30;;;9.70;99.90;;;;;;5055117;28;20437;-72
2021/11/15 12:31:44;;;;;;;0.80;0.70;;;9.70;99.90;;;;;;5055169;28;20492;-72
2021/11/15 12:34:10;;;;;;;0.70;0.50;;;9.60;99.90;;;;;;5055687;28;20398;-72
2021/11/15 12:36:41;;;;;;;0.80;0.80;;;9.60;99.90;;;;;;5055929;28;21040;-71
2021/11/15 12:39:16;;;;;;;1.47;0.80;;;9.60;99.90;;;;;;5055717;28;20266;-70
2021/11/15 12:41:48;;;;;;;0.70;0.50;;;9.50;99.90;;;;;;5055687;28;20414;-71
2021/11/15 12:44:22;;;;;;;1.60;1.50;;;9.60;99.90;;;;;;5054313;28;20432;-71
2021/11/15 12:47:02;;;;;;;0.70;0.50;;;9.60;99.90;;;;;;5055322;28;20502;-71
2021/11/15 12:49:36;;;;;;;2.20;1.53;;;9.60;99.90;;;;;;5055484;28;20433;-70
2021/11/15 12:52:14;;;;;;;0.80;0.80;;;9.50;99.90;;;;;;5053921;28;20478;-71
2021/11/15 12:54:55;;;;;;;1.27;1.17;;;9.60;99.90;;;;;;5054035;28;20425;-71
2021/11/15 12:57:20;;;;;;;4.13;2.20;;;9.60;99.90;;;;;;5054373;28;20456;-71
2021/11/15 12:59:51;;;;;;;0.87;0.87;;;9.60;99.90;;;;;;5053981;28;20961;-71
2021/11/15 13:02:17;;;;;;;0.70;0.53;;;9.60;99.90;;;;;;5054606;28;20254;-71
2021/11/15 13:04:43;;;;;;;0.70;0.50;;;9.60;99.90;;;;;;5054472;28;20456;-71
2021/11/15 13:07:12;;;;;;;0.90;0.90;;;9.60;99.90;;;;;;5053873;28;20479;-71